Airport View

Enter AWOS ICAO identifier for current METAR.

ex. KFNL

KMXO 221845Z AUTO 01007G13KT 10SM FEW044 FEW055 SCT060 24/15 A3013 RMK AO2

22 Jul 2019 18:48

Frequency: 119.275

Phone: 319-465-6155

Other Area AWOS: KDBQ - KCID - KIIB - KVTI

TAF KDBQ 221720Z 2218/2318 02011G18KT P6SM SCT035 FM230100 34006KT P6SM SKC